Time;durP1;ratioP1;P1;durP2;ratioP2;P2;SDS_P1;SDS_P2;PMS_P1;PMS_P2;Temp;Humidity;BMP_temperature;BMP_pressure;BME280_temperature;BME280_humidity;BME280_pressure;Samples;Min_cycle;Max_cycle;Signal;HPM_P1;HPM_P2
2022/01/10 00:01:22;;;;;;;16.85;7.00;;;2.10;99.90;;;;;;6157793;23;20010;-89
2022/01/10 00:03:59;;;;;;;11.85;5.72;;;2.00;99.90;;;;;;6138769;23;20002;-90
2022/01/10 00:06:27;;;;;;;12.57;6.32;;;2.00;99.90;;;;;;6134737;23;20452;-90
2022/01/10 00:09:33;;;;;;;10.98;5.97;;;2.00;99.90;;;;;;6158905;23;20005;-89
2022/01/10 00:12:32;;;;;;;;;;;;;;;;;;;;;
2022/01/10 00:15:19;;;;;;;;;;;;;;;;;;;;;
2022/01/10 00:21:34;;;;;;;11.18;5.47;;;1.90;99.90;;;;;;6143348;23;20072;-89
2022/01/10 00:25:00;;;;;;;;;;;;;;;;;;;;;
2022/01/10 00:27:45;;;;;;;13.30;5.65;;;1.90;99.90;;;;;;6183939;23;20001;-88
2022/01/10 00:30:39;;;;;;;12.40;5.65;;;1.90;99.90;;;;;;6182547;23;20010;-88
2022/01/10 00:33:28;;;;;;;;;;;;;;;;;;;;;
2022/01/10 00:36:35;;;;;;;13.65;6.30;;;1.80;99.90;;;;;;6159917;23;20069;-89
2022/01/10 00:42:44;;;;;;;12.25;6.28;;;1.80;99.90;;;;;;6129631;23;20021;-88
2022/01/10 00:48:47;;;;;;;16.75;6.88;;;1.80;99.90;;;;;;6147341;23;20009;-90
2022/01/10 00:51:13;;;;;;;12.85;6.60;;;1.70;99.90;;;;;;6120453;23;20005;-90
2022/01/10 00:54:02;;;;;;;14.32;6.63;;;1.70;99.90;;;;;;6163980;23;20001;-89
2022/01/10 00:57:10;;;;;;;12.57;6.35;;;1.80;99.90;;;;;;6164734;23;20013;-90
2022/01/10 00:59:39;;;;;;;10.77;6.78;;;1.70;99.90;;;;;;6160301;23;20012;-89
2022/01/10 01:02:31;;;;;;;;;;;;;;;;;;;;;
2022/01/10 01:05:08;;;;;;;14.48;7.07;;;1.70;99.90;;;;;;6187581;23;20083;-87
2022/01/10 01:08:01;;;;;;;10.90;6.55;;;1.70;99.90;;;;;;6161079;23;20319;-87
2022/01/10 01:11:12;;;;;;;11.68;5.72;;;1.70;99.90;;;;;;6161348;23;20525;-87
2022/01/10 01:13:59;;;;;;;12.23;6.00;;;1.70;99.90;;;;;;6186143;23;20016;-88
2022/01/10 01:26:19;;;;;;;;;;;;;;;;;;;;;
2022/01/10 01:28:57;;;;;;;15.77;6.75;;;1.60;99.90;;;;;;6188167;23;20025;-86
2022/01/10 01:31:29;;;;;;;14.18;7.35;;;1.60;99.90;;;;;;6138232;23;20144;-87
2022/01/10 01:37:01;;;;;;;14.07;7.35;;;1.50;99.90;;;;;;6165119;23;20016;-87
2022/01/10 01:39:35;;;;;;;10.27;6.65;;;1.50;99.90;;;;;;6138010;23;20035;-87
2022/01/10 01:45:39;;;;;;;15.20;7.45;;;1.50;99.90;;;;;;6111448;23;20083;-86
2022/01/10 01:48:10;;;;;;;14.70;7.13;;;1.50;99.90;;;;;;6182899;23;20013;-86
2022/01/10 01:51:00;;;;;;;;;;;;;;;;;;;;;
2022/01/10 01:56:36;;;;;;;14.13;7.97;;;1.50;99.90;;;;;;6163102;23;20006;-88
2022/01/10 01:59:16;;;;;;;;;;;;;;;;;;;;;
2022/01/10 02:07:44;;;;;;;14.38;7.93;;;1.50;99.90;;;;;;6140064;23;20103;-87
2022/01/10 02:10:23;;;;;;;;;;;;;;;;;;;;;
2022/01/10 02:12:59;;;;;;;16.33;7.95;;;1.40;99.90;;;;;;6157126;23;20360;-87
2022/01/10 02:16:04;;;;;;;15.30;7.72;;;1.40;99.90;;;;;;6131932;23;20552;-88
2022/01/10 02:18:44;;;;;;;15.40;8.38;;;1.40;99.90;;;;;;6155774;23;19997;-88
2022/01/10 02:21:14;;;;;;;14.80;7.75;;;1.40;99.90;;;;;;6131847;23;20013;-88
2022/01/10 02:23:43;;;;;;;12.00;7.63;;;1.40;99.90;;;;;;6155311;23;20431;-89
2022/01/10 02:26:28;;;;;;;17.42;8.52;;;1.40;99.90;;;;;;6155838;23;20495;-89
2022/01/10 02:29:14;;;;;;;16.55;8.75;;;1.40;99.90;;;;;;6155383;23;20088;-88
2022/01/10 02:31:48;;;;;;;16.42;8.75;;;1.30;99.90;;;;;;6156654;23;20133;-88
2022/01/10 02:34:24;;;;;;;14.75;8.38;;;1.30;99.90;;;;;;6157107;23;20001;-88
2022/01/10 02:37:00;;;;;;;;;;;;;;;;;;;;;
2022/01/10 02:39:37;;;;;;;13.20;8.25;;;1.30;99.90;;;;;;6159164;23;20092;-88
2022/01/10 02:42:09;;;;;;;13.40;8.50;;;1.30;99.90;;;;;;6157758;23;20092;-88
2022/01/10 02:44:53;;;;;;;15.82;8.70;;;1.30;99.90;;;;;;6157659;23;19998;-88
2022/01/10 02:47:22;;;;;;;16.95;8.45;;;1.30;99.90;;;;;;6136744;23;20077;-89
2022/01/10 02:53:22;;;;;;;15.98;8.07;;;1.30;99.90;;;;;;6159273;23;20005;-88
2022/01/10 02:59:07;;;;;;;14.68;7.35;;;1.20;99.90;;;;;;6157720;23;20475;-88
2022/01/10 03:01:42;;;;;;;14.07;7.60;;;1.20;99.90;;;;;;6137922;23;20018;-89
2022/01/10 03:04:17;;;;;;;13.10;8.50;;;1.20;99.90;;;;;;6158837;23;20080;-89
2022/01/10 03:07:03;;;;;;;12.80;7.95;;;1.20;99.90;;;;;;6166108;23;20028;-89
2022/01/10 03:09:38;;;;;;;15.65;7.85;;;1.20;99.90;;;;;;6182655;23;20020;-88
2022/01/10 03:12:16;;;;;;;14.52;7.38;;;1.20;99.90;;;;;;6155659;23;20016;-86
2022/01/10 03:15:23;;;;;;;;;;;;;;;;;;;;;
2022/01/10 03:18:09;;;;;;;12.77;8.23;;;1.10;99.90;;;;;;6157075;23;20056;-89
2022/01/10 03:21:03;;;;;;;10.73;7.40;;;1.10;99.90;;;;;;6133647;23;20018;-90
2022/01/10 03:26:42;;;;;;;;;;;;;;;;;;;;;
2022/01/10 03:29:13;;;;;;;13.77;8.00;;;1.00;99.90;;;;;;6158935;23;20395;-89
2022/01/10 03:32:01;;;;;;;13.93;8.07;;;1.00;99.90;;;;;;6157220;23;20018;-88
2022/01/10 03:34:43;;;;;;;13.20;8.30;;;1.00;99.90;;;;;;6157505;23;20491;-88
2022/01/10 03:37:20;;;;;;;12.63;8.02;;;1.00;99.90;;;;;;6157276;23;20005;-89
2022/01/10 03:40:00;;;;;;;11.90;7.50;;;1.00;99.90;;;;;;6156932;23;20009;-89
2022/01/10 03:42:51;;;;;;;13.07;7.50;;;1.00;99.90;;;;;;6161372;23;20013;-90
2022/01/10 03:45:59;;;;;;;15.38;8.25;;;1.00;99.90;;;;;;6137274;23;20013;-89
2022/01/10 03:48:27;;;;;;;12.03;7.40;;;1.00;99.90;;;;;;6153524;23;20037;-89
2022/01/10 03:50:56;;;;;;;15.77;8.23;;;1.00;99.90;;;;;;6162004;23;20088;-88
2022/01/10 03:53:36;;;;;;;13.95;7.97;;;1.00;99.90;;;;;;6162214;23;20051;-88
2022/01/10 03:56:12;;;;;;;;;;;;;;;;;;;;;
2022/01/10 03:58:58;;;;;;;;;;;;;;;;;;;;;
2022/01/10 04:01:29;;;;;;;13.15;9.02;;;0.90;99.90;;;;;;6187698;23;20088;-90
2022/01/10 04:03:59;;;;;;;13.57;8.53;;;0.90;99.90;;;;;;6161343;23;20005;-89
2022/01/10 04:06:35;;;;;;;;;;;;;;;;;;;;;
2022/01/10 04:09:07;;;;;;;16.77;8.55;;;0.90;99.90;;;;;;6187719;23;20081;-88
2022/01/10 04:11:51;;;;;;;;;;;;;;;;;;;;;
2022/01/10 04:14:20;;;;;;;15.25;8.77;;;1.00;99.90;;;;;;6165174;23;20092;-89
2022/01/10 04:16:53;;;;;;;12.43;8.05;;;1.00;99.90;;;;;;6162060;23;20057;-89
2022/01/10 04:19:43;;;;;;;;;;;;;;;;;;;;;
2022/01/10 04:22:28;;;;;;;;;;;;;;;;;;;;;
2022/01/10 04:25:00;;;;;;;16.87;8.77;;;1.00;99.90;;;;;;6164635;23;20084;-89
2022/01/10 04:27:54;;;;;;;15.57;9.13;;;1.00;99.90;;;;;;6146410;23;20001;-89
2022/01/10 04:30:32;;;;;;;;;;;;;;;;;;;;;
2022/01/10 04:33:29;;;;;;;;;;;;;;;;;;;;;
2022/01/10 04:36:07;;;;;;;16.00;9.10;;;1.00;99.90;;;;;;6208675;23;20012;-90
2022/01/10 04:38:54;;;;;;;18.23;8.82;;;1.00;99.90;;;;;;6143885;23;20059;-90
2022/01/10 04:41:33;;;;;;;16.70;9.98;;;1.00;99.90;;;;;;6170092;23;20013;-90
2022/01/10 04:44:30;;;;;;;18.38;10.10;;;1.00;99.90;;;;;;6156616;23;20033;-88
2022/01/10 04:47:06;;;;;;;14.35;8.95;;;1.00;99.90;;;;;;6156589;23;20008;-89
2022/01/10 04:55:50;;;;;;;14.82;9.68;;;1.10;99.90;;;;;;6141910;23;20013;-89
2022/01/10 04:58:24;;;;;;;;;;;1.10;99.90;;;;;;6157352;23;20005;-89
2022/01/10 05:01:13;;;;;;;21.63;9.40;;;1.10;99.90;;;;;;6154927;23;19909;-90
2022/01/10 05:04:33;;;;;;;17.77;9.43;;;1.10;99.90;;;;;;6156537;23;20356;-89
2022/01/10 05:07:16;;;;;;;18.80;11.07;;;1.20;99.90;;;;;;6155512;23;20408;-88
2022/01/10 05:13:07;;;;;;;;;;;;;;;;;;;;;
2022/01/10 05:15:37;;;;;;;17.40;10.73;;;1.30;99.90;;;;;;6157570;23;20076;-89
2022/01/10 05:18:38;;;;;;;;;;;;;;;;;;;;;
2022/01/10 05:21:17;;;;;;;;;;;;;;;;;;;;;
2022/01/10 05:26:55;;;;;;;16.10;10.50;;;1.40;99.90;;;;;;6141258;23;20014;-89
2022/01/10 05:29:39;;;;;;;;;;;;;;;;;;;;;
2022/01/10 05:32:16;;;;;;;;;;;;;;;;;;;;;
2022/01/10 05:34:52;;;;;;;20.73;12.48;;;1.60;99.90;;;;;;6157727;23;20072;-89
2022/01/10 05:37:44;;;;;;;18.42;10.93;;;1.60;99.90;;;;;;6132853;23;20010;-89
2022/01/10 05:40:19;;;;;;;19.40;11.70;;;1.60;99.90;;;;;;6156006;23;20432;-88
2022/01/10 05:42:50;;;;;;;16.42;11.27;;;1.70;99.90;;;;;;6173592;23;20471;-89
2022/01/10 05:45:28;;;;;;;21.90;11.63;;;1.70;99.90;;;;;;6137986;23;20009;-89
2022/01/10 05:48:07;;;;;;;;;;;;;;;;;;;;;
2022/01/10 05:50:52;;;;;;;;;;;;;;;;;;;;;
2022/01/10 05:53:30;;;;;;;17.77;12.13;;;1.80;99.90;;;;;;6208262;23;20004;-89
2022/01/10 05:56:09;;;;;;;;;;;;;;;;;;;;;
2022/01/10 05:58:46;;;;;;;18.98;11.85;;;1.80;99.90;;;;;;6193290;23;20032;-90
2022/01/10 06:01:47;;;;;;;23.15;12.55;;;1.80;99.90;;;;;;6136100;23;20017;-89
2022/01/10 06:04:44;;;;;;;15.82;11.23;;;1.90;99.90;;;;;;6154675;23;20001;-89
2022/01/10 06:07:46;;;;;;;17.38;12.07;;;1.90;99.90;;;;;;6160123;23;20375;-90
2022/01/10 06:10:35;;;;;;;22.25;12.65;;;1.90;99.90;;;;;;6159215;23;20037;-89
2022/01/10 06:13:16;;;;;;;;;;;;;;;;;;;;;
2022/01/10 06:15:56;;;;;;;;;;;;;;;;;;;;;
2022/01/10 06:18:33;;;;;;;18.87;12.80;;;2.00;99.90;;;;;;6186695;23;20058;-89
2022/01/10 06:21:06;;;;;;;20.30;12.88;;;2.00;99.90;;;;;;6186499;23;20275;-89
2022/01/10 06:27:27;;;;;;;25.83;15.05;;;2.10;99.90;;;;;;6001301;23;20012;-91
2022/01/10 06:30:25;;;;;;;23.95;14.93;;;2.10;99.90;;;;;;6009775;23;20043;-88
2022/01/10 06:32:57;;;;;;;26.65;15.30;;;2.10;99.90;;;;;;6009973;23;20014;-89
2022/01/10 06:35:48;;;;;;;22.63;14.00;;;2.10;99.90;;;;;;6010096;23;20032;-90
2022/01/10 06:38:16;;;;;;;23.23;15.35;;;2.10;99.90;;;;;;6109176;23;20470;-91
2022/01/10 06:40:52;;;;;;;22.30;15.77;;;2.10;99.90;;;;;;6082278;23;20017;-92
2022/01/10 06:43:21;;;;;;;23.45;15.32;;;2.10;99.90;;;;;;6124879;23;20024;-91
2022/01/10 06:46:13;;;;;;;24.55;15.15;;;2.20;99.90;;;;;;6126175;23;20033;-93
2022/01/10 06:48:47;;;;;;;26.60;15.48;;;2.20;99.90;;;;;;6126452;23;19998;-91
2022/01/10 06:51:21;;;;;;;23.23;13.88;;;2.20;99.90;;;;;;6126265;23;19998;-92
2022/01/10 06:54:02;;;;;;;;;;;;;;;;;;;;;
2022/01/10 06:56:58;;;;;;;;;;;;;;;;;;;;;
2022/01/10 06:59:36;;;;;;;22.50;14.30;;;2.20;99.90;;;;;;6126860;23;20066;-91
2022/01/10 07:02:16;;;;;;;22.67;13.85;;;2.20;99.90;;;;;;6127123;23;20006;-92
2022/01/10 07:05:31;;;;;;;;;;;;;;;;;;;;;
2022/01/10 07:08:17;;;;;;;19.52;12.70;;;2.20;99.90;;;;;;6127390;23;20101;-87
2022/01/10 07:10:45;;;;;;;20.27;13.23;;;2.20;99.90;;;;;;6128505;23;20010;-89
2022/01/10 07:13:13;;;;;;;17.35;12.85;;;2.20;99.90;;;;;;6149603;23;20021;-88
2022/01/10 07:15:49;;;;;;;18.02;12.77;;;2.20;99.90;;;;;;6128055;23;20033;-88
2022/01/10 07:18:17;;;;;;;20.95;13.23;;;2.20;99.90;;;;;;6126738;23;20018;-87
2022/01/10 07:20:46;;;;;;;19.83;13.18;;;2.20;99.90;;;;;;6138414;23;20018;-88
2022/01/10 07:23:23;;;;;;;22.35;13.77;;;2.20;99.90;;;;;;6127611;23;20006;-90
2022/01/10 07:26:00;;;;;;;21.98;14.82;;;2.20;99.90;;;;;;6126975;23;20033;-89
2022/01/10 07:28:37;;;;;;;24.52;16.63;;;2.20;99.90;;;;;;6103863;23;20002;-91
2022/01/10 07:31:10;;;;;;;25.40;16.45;;;2.20;99.90;;;;;;6126414;23;20045;-87
2022/01/10 07:33:37;;;;;;;21.83;14.25;;;2.20;99.90;;;;;;6126203;23;20018;-87
2022/01/10 07:36:12;;;;;;;23.95;16.05;;;2.20;99.90;;;;;;6102193;23;20060;-87
2022/01/10 07:38:43;;;;;;;22.35;15.23;;;2.30;99.90;;;;;;6126665;23;20009;-87
2022/01/10 07:41:17;;;;;;;23.30;14.40;;;2.30;99.90;;;;;;6126698;23;20014;-88
2022/01/10 07:43:47;;;;;;;22.13;14.27;;;2.20;99.90;;;;;;6126287;23;20018;-89
2022/01/10 07:46:17;;;;;;;21.85;13.57;;;2.20;99.90;;;;;;6103082;23;20073;-88
2022/01/10 07:48:54;;;;;;;25.52;14.00;;;2.20;99.90;;;;;;6127152;23;20006;-88
2022/01/10 07:51:23;;;;;;;23.15;14.32;;;2.20;99.90;;;;;;6103989;23;20016;-88
2022/01/10 07:53:59;;;;;;;21.75;14.18;;;2.20;99.90;;;;;;6126904;23;20057;-87
2022/01/10 07:56:27;;;;;;;21.08;14.10;;;2.10;99.90;;;;;;6104998;23;20085;-88
2022/01/10 07:59:03;;;;;;;21.67;14.45;;;2.10;99.90;;;;;;6126648;23;20002;-88
2022/01/10 08:01:28;;;;;;;20.52;14.60;;;2.10;99.90;;;;;;6126631;23;20488;-88
2022/01/10 08:03:54;;;;;;;19.95;14.93;;;2.10;99.90;;;;;;6125961;23;20030;-87
2022/01/10 08:06:47;;;;;;;21.50;14.70;;;2.10;99.90;;;;;;6125675;23;20006;-87
2022/01/10 08:09:16;;;;;;;22.17;14.45;;;2.10;99.90;;;;;;6126223;23;20009;-88
2022/01/10 08:12:00;;;;;;;;;;;;;;;;;;;;;
2022/01/10 08:14:30;;;;;;;22.75;15.48;;;2.10;99.90;;;;;;6125762;23;20081;-87
2022/01/10 08:16:59;;;;;;;24.70;15.40;;;2.10;99.90;;;;;;6126300;23;20008;-87
2022/01/10 08:19:31;;;;;;;25.95;15.82;;;2.20;99.90;;;;;;6125858;23;20013;-88
2022/01/10 08:22:00;;;;;;;22.63;14.85;;;2.20;99.90;;;;;;6126464;23;20110;-87
2022/01/10 08:24:28;;;;;;;23.23;15.30;;;2.20;99.90;;;;;;6126103;23;20024;-89
2022/01/10 08:26:55;;;;;;;27.73;16.67;;;2.20;99.90;;;;;;6126727;23;20081;-88
2022/01/10 08:29:24;;;;;;;24.75;16.35;;;2.20;99.90;;;;;;6126822;23;20077;-88
2022/01/10 08:31:52;;;;;;;24.42;15.05;;;2.30;99.90;;;;;;6127806;23;20080;-87
2022/01/10 08:34:19;;;;;;;25.45;15.50;;;2.30;99.90;;;;;;6141308;23;19989;-87
2022/01/10 08:36:47;;;;;;;25.27;16.92;;;2.30;99.90;;;;;;6129295;23;19990;-86
2022/01/10 08:39:16;;;;;;;25.58;16.05;;;2.40;99.90;;;;;;6152341;23;20006;-85
2022/01/10 08:41:42;;;;;;;24.83;16.40;;;2.40;99.90;;;;;;6135837;23;20425;-85
2022/01/10 08:44:10;;;;;;;24.58;16.50;;;2.40;99.90;;;;;;6109098;23;20020;-87
2022/01/10 08:46:46;;;;;;;28.05;18.08;;;2.40;99.90;;;;;;6131347;23;20076;-87
2022/01/10 08:49:33;;;;;;;27.85;18.77;;;2.50;99.90;;;;;;6132315;23;20010;-87
2022/01/10 08:51:59;;;;;;;27.58;18.67;;;2.50;99.90;;;;;;6155735;23;20009;-87
2022/01/10 08:54:28;;;;;;;24.33;17.60;;;2.60;99.90;;;;;;6105287;23;20068;-87
2022/01/10 08:56:56;;;;;;;25.67;17.13;;;2.50;99.90;;;;;;6130450;23;20001;-88
2022/01/10 08:59:29;;;;;;;25.38;16.55;;;2.50;99.90;;;;;;6130858;23;19997;-88
2022/01/10 09:02:00;;;;;;;21.85;16.05;;;2.50;99.90;;;;;;6107296;23;20013;-88
2022/01/10 09:04:47;;;;;;;23.55;16.85;;;2.60;99.90;;;;;;6106098;23;20031;-87
2022/01/10 09:07:15;;;;;;;24.50;16.60;;;2.60;99.90;;;;;;6134919;23;20106;-86
2022/01/10 09:09:51;;;;;;;25.42;16.80;;;2.60;99.90;;;;;;6130857;23;19998;-89
2022/01/10 09:12:19;;;;;;;27.38;17.08;;;2.60;99.90;;;;;;6106620;23;20017;-87
2022/01/10 09:14:45;;;;;;;24.35;16.02;;;2.60;99.90;;;;;;6129866;23;20312;-87
2022/01/10 09:17:14;;;;;;;24.75;16.80;;;2.70;99.90;;;;;;6130619;23;20036;-88
2022/01/10 09:19:52;;;;;;;26.25;16.65;;;2.70;99.90;;;;;;6130418;23;20431;-88
2022/01/10 09:22:23;;;;;;;28.48;16.52;;;2.70;99.90;;;;;;6106257;23;20095;-88
2022/01/10 09:24:52;;;;;;;25.27;16.23;;;2.80;99.90;;;;;;6130073;23;20083;-87
2022/01/10 09:27:23;;;;;;;21.27;15.75;;;2.80;99.90;;;;;;6129944;23;20032;-87
2022/01/10 09:30:16;;;;;;;24.95;16.20;;;2.90;99.90;;;;;;6106242;23;20002;-87
2022/01/10 09:32:46;;;;;;;24.17;16.50;;;2.90;99.90;;;;;;6129859;23;20376;-87
2022/01/10 09:35:20;;;;;;;22.17;15.82;;;2.90;99.90;;;;;;6130145;23;19998;-88
2022/01/10 09:38:16;;;;;;;21.40;15.93;;;3.00;99.90;;;;;;6130901;23;20017;-87
2022/01/10 09:40:47;;;;;;;26.63;16.27;;;3.00;99.90;;;;;;6130199;23;20013;-88
2022/01/10 09:43:21;;;;;;;;;;;3.10;99.90;;;;;;6142624;23;20563;-88
2022/01/10 09:45:56;;;;;;;22.15;15.45;;;3.10;99.90;;;;;;6125780;23;19964;-88
2022/01/10 09:48:54;;;;;;;21.75;16.15;;;3.10;99.90;;;;;;6127561;23;20005;-90
2022/01/10 09:51:26;;;;;;;26.58;16.73;;;3.20;99.90;;;;;;6127025;23;20006;-91
2022/01/10 09:57:08;;;;;;;;;;;;;;;;;;;;;
2022/01/10 09:59:50;;;;;;;24.70;17.20;;;3.30;99.90;;;;;;6143696;23;19994;-88
2022/01/10 10:05:51;;;;;;;25.10;17.02;;;3.40;99.90;;;;;;6145183;23;20017;-88
2022/01/10 10:08:26;;;;;;;24.13;17.30;;;3.50;99.90;;;;;;6097078;23;20006;-88
2022/01/10 10:11:00;;;;;;;26.42;17.70;;;3.50;99.90;;;;;;6126153;23;20009;-87
2022/01/10 10:13:35;;;;;;;29.35;18.35;;;3.50;99.90;;;;;;6101429;23;20497;-88
2022/01/10 10:16:11;;;;;;;;;;;;;;;;;;;;;
2022/01/10 10:18:47;;;;;;;26.90;18.15;;;3.60;99.90;;;;;;6126458;23;20076;-88
2022/01/10 10:21:18;;;;;;;25.75;18.27;;;3.60;99.90;;;;;;6125700;23;20014;-87
2022/01/10 10:23:49;;;;;;;;;;;3.70;99.90;;;;;;6125757;23;20053;-88
2022/01/10 10:26:41;;;;;;;37.03;24.00;;;3.70;99.90;;;;;;6125834;23;20227;-88
2022/01/10 10:29:18;;;;;;;33.40;22.08;;;3.80;99.90;;;;;;6125644;23;20498;-87
2022/01/10 10:31:50;;;;;;;33.00;21.95;;;3.80;99.90;;;;;;6125419;23;20037;-87
2022/01/10 10:34:24;;;;;;;31.77;20.80;;;3.90;99.90;;;;;;6125934;23;20002;-87
2022/01/10 10:37:30;;;;;;;;;;;;;;;;;;;;;
2022/01/10 10:40:06;;;;;;;31.17;20.15;;;4.00;99.90;;;;;;6118003;23;20078;-88
2022/01/10 10:42:43;;;;;;;31.08;18.23;;;4.10;99.90;;;;;;6101540;23;20022;-87
2022/01/10 10:45:14;;;;;;;30.20;19.02;;;4.10;99.90;;;;;;6125466;23;20052;-87
2022/01/10 10:47:43;;;;;;;29.95;18.92;;;4.20;99.90;;;;;;6101106;23;20029;-87
2022/01/10 10:50:12;;;;;;;26.95;18.08;;;4.20;99.90;;;;;;6125214;23;20052;-87
2022/01/10 10:52:41;;;;;;;26.33;18.25;;;4.20;99.90;;;;;;6100448;23;20345;-88
2022/01/10 10:55:41;;;;;;;32.22;19.90;;;4.30;99.90;;;;;;6125457;23;20009;-87
2022/01/10 10:58:15;;;;;;;30.77;17.95;;;4.30;99.90;;;;;;6152032;23;20502;-88
2022/01/10 11:00:46;;;;;;;25.63;16.00;;;4.40;99.90;;;;;;6103378;23;20014;-91
2022/01/10 11:03:15;;;;;;;29.02;18.45;;;4.40;99.90;;;;;;6103465;23;20092;-87
2022/01/10 11:05:44;;;;;;;25.45;16.83;;;4.50;99.90;;;;;;6128313;23;19998;-87
2022/01/10 11:10:57;;;;;;;26.45;17.30;;;4.50;99.90;;;;;;6128525;23;20033;-87
2022/01/10 11:13:32;;;;;;;25.52;17.48;;;4.50;99.90;;;;;;6127103;23;20005;-86
2022/01/10 11:16:01;;;;;;;27.67;17.23;;;4.60;99.90;;;;;;6131066;23;20010;-89
2022/01/10 11:18:43;;;;;;;;;;;;;;;;;;;;;
2022/01/10 11:21:42;;;;;;;;;;;;;;;;;;;;;
2022/01/10 11:24:30;;;;;;;29.52;16.77;;;4.70;99.90;;;;;;6130403;23;20072;-88
2022/01/10 11:27:03;;;;;;;25.02;17.15;;;4.70;99.90;;;;;;6153169;23;20074;-87
2022/01/10 11:29:43;;;;;;;23.38;16.60;;;4.80;99.90;;;;;;6152848;23;20069;-89
2022/01/10 11:32:30;;;;;;;;;;;;;;;;;;;;;
2022/01/10 11:35:45;;;;;;;27.27;17.85;;;4.80;99.90;;;;;;6135750;23;20033;-89
2022/01/10 11:45:29;;;;;;;32.53;18.35;;;4.90;99.90;;;;;;6114907;23;20096;-90
2022/01/10 11:48:50;;;;;;;30.85;16.95;;;4.90;99.90;;;;;;6079974;23;20002;-91
2022/01/10 11:51:43;;;;;;;34.67;23.15;;;5.00;99.90;;;;;;6126686;23;20438;-91
2022/01/10 11:54:32;;;;;;;28.13;19.15;;;5.00;99.90;;;;;;6113842;23;20052;-89
2022/01/10 11:57:14;;;;;;;;;;;;;;;;;;;;;
2022/01/10 12:00:11;;;;;;;;;;;;;;;;;;;;;
2022/01/10 12:05:53;;;;;;;28.65;18.42;;;5.10;99.90;;;;;;6129601;23;20006;-88
2022/01/10 12:08:30;;;;;;;;;;;5.20;99.90;;;;;;6078552;23;20002;-88
2022/01/10 12:11:17;;;;;;;27.65;16.63;;;5.20;99.90;;;;;;6127895;23;19901;-88
2022/01/10 12:13:58;;;;;;;26.90;16.73;;;5.30;99.90;;;;;;6100986;23;20068;-88
2022/01/10 12:16:35;;;;;;;25.70;17.17;;;5.30;99.90;;;;;;6102450;23;20448;-88
2022/01/10 12:19:07;;;;;;;29.42;17.77;;;5.30;99.90;;;;;;6102564;23;20002;-88
2022/01/10 12:22:11;;;;;;;;;;;;;;;;;;;;;
2022/01/10 12:24:42;;;;;;;27.50;16.80;;;5.40;99.90;;;;;;6127367;23;20081;-87
2022/01/10 12:30:32;;;;;;;;;;;;;;;;;;;;;
2022/01/10 12:33:14;;;;;;;;;;;;;;;;;;;;;
2022/01/10 12:35:58;;;;;;;;;;;;;;;;;;;;;
2022/01/10 12:38:29;;;;;;;28.35;17.15;;;5.60;99.90;;;;;;6128436;23;20085;-89
2022/01/10 12:43:55;;;;;;;26.92;16.52;;;5.60;99.90;;;;;;6131044;23;20436;-89
2022/01/10 12:46:31;;;;;;;22.15;17.02;;;5.70;99.90;;;;;;6131726;23;20013;-88
2022/01/10 12:49:09;;;;;;;38.85;24.58;;;5.70;99.90;;;;;;6132352;23;20014;-89
2022/01/10 12:52:11;;;;;;;40.10;24.65;;;5.70;99.90;;;;;;6134287;23;20029;-88
2022/01/10 12:54:53;;;;;;;32.05;21.00;;;5.70;99.90;;;;;;6102402;23;20017;-88
2022/01/10 12:57:19;;;;;;;37.80;24.33;;;5.80;99.90;;;;;;6160215;23;20010;-90
2022/01/10 13:00:07;;;;;;;40.92;24.88;;;5.80;99.90;;;;;;6158027;23;20000;-90
2022/01/10 13:02:56;;;;;;;34.13;21.27;;;5.80;99.90;;;;;;6152417;23;20033;-88
2022/01/10 13:05:37;;;;;;;30.20;18.80;;;5.80;99.90;;;;;;6131792;23;20028;-89
2022/01/10 13:08:25;;;;;;;25.70;17.05;;;5.80;99.90;;;;;;6132148;23;20026;-89
2022/01/10 13:10:56;;;;;;;28.25;17.17;;;5.80;99.90;;;;;;6109260;23;20114;-88
2022/01/10 13:13:27;;;;;;;22.17;17.00;;;5.90;99.90;;;;;;6110658;23;20005;-88
2022/01/10 13:16:01;;;;;;;23.67;16.02;;;5.90;99.90;;;;;;6134617;23;20255;-89
2022/01/10 13:18:49;;;;;;;;;;;;;;;;;;;;;
2022/01/10 13:22:05;;;;;;;;;;;;;;;;;;;;;
2022/01/10 13:25:36;;;;;;;23.30;15.35;;;5.90;99.90;;;;;;6158003;23;20384;-89
2022/01/10 13:28:32;;;;;;;22.30;14.52;;;6.00;99.90;;;;;;6149699;23;20090;-90
2022/01/10 13:31:16;;;;;;;20.90;14.85;;;6.00;99.90;;;;;;6129823;23;20432;-89
2022/01/10 13:33:56;;;;;;;22.65;13.32;;;6.00;99.90;;;;;;6108275;23;20013;-89
2022/01/10 13:36:50;;;;;;;17.95;12.02;;;6.10;99.90;;;;;;6107367;23;20016;-89
2022/01/10 13:39:30;;;;;;;20.73;12.93;;;6.00;99.90;;;;;;6106842;23;20005;-89
2022/01/10 13:42:18;;;;;;;22.65;13.57;;;6.10;99.90;;;;;;6130342;23;20006;-89
2022/01/10 13:45:17;;;;;;;17.30;12.77;;;6.10;99.90;;;;;;6126177;23;20009;-89
2022/01/10 13:48:00;;;;;;;20.23;14.00;;;6.10;99.90;;;;;;6149627;23;20020;-88
2022/01/10 13:50:33;;;;;;;19.85;12.93;;;6.10;99.90;;;;;;6126157;23;20006;-88
2022/01/10 13:53:19;;;;;;;18.33;12.77;;;6.10;99.90;;;;;;6125778;23;20057;-88
2022/01/10 13:56:17;;;;;;;17.17;12.40;;;6.00;99.90;;;;;;6130045;23;20020;-89
2022/01/10 13:58:59;;;;;;;17.73;13.10;;;6.10;99.90;;;;;;6127315;23;20028;-89
2022/01/10 14:01:46;;;;;;;;;;;;;;;;;;;;;
2022/01/10 14:04:35;;;;;;;23.45;16.90;;;6.10;99.90;;;;;;6129783;23;20077;-90
2022/01/10 14:07:17;;;;;;;24.83;18.30;;;6.10;99.90;;;;;;6128536;23;20037;-88
2022/01/10 14:09:54;;;;;;;27.50;18.33;;;6.10;99.90;;;;;;6127310;23;20029;-88
2022/01/10 14:12:20;;;;;;;26.73;18.40;;;6.10;99.90;;;;;;6104732;23;20017;-89
2022/01/10 14:14:45;;;;;;;26.95;19.90;;;6.10;99.90;;;;;;6134946;23;20006;-89
2022/01/10 14:17:15;;;;;;;30.33;20.25;;;6.10;99.90;;;;;;6112470;23;20006;-88
2022/01/10 14:19:44;;;;;;;28.65;19.77;;;6.00;99.90;;;;;;6133705;23;20066;-89
2022/01/10 14:22:13;;;;;;;26.65;19.23;;;6.10;99.90;;;;;;6113604;23;20022;-89
2022/01/10 14:24:44;;;;;;;26.55;20.00;;;6.00;99.90;;;;;;6139389;23;20002;-88
2022/01/10 14:27:19;;;;;;;29.52;19.02;;;6.00;99.90;;;;;;6147183;23;20009;-89
2022/01/10 14:29:52;;;;;;;27.10;19.00;;;6.00;99.90;;;;;;6149589;23;20013;-85
2022/01/10 14:32:27;;;;;;;27.30;18.25;;;6.00;99.90;;;;;;6134729;23;20006;-87
2022/01/10 14:38:37;;;;;;;25.65;18.33;;;5.90;99.90;;;;;;6120113;23;20085;-88
2022/01/10 14:41:26;;;;;;;;;;;;;;;;;;;;;
2022/01/10 14:44:04;;;;;;;24.13;17.70;;;5.90;99.90;;;;;;6133710;23;20092;-88
2022/01/10 14:47:00;;;;;;;26.38;18.58;;;5.80;99.90;;;;;;6132162;23;20001;-88
2022/01/10 14:49:30;;;;;;;25.08;16.67;;;5.80;99.90;;;;;;6132052;23;20024;-87
2022/01/10 14:52:18;;;;;;;24.75;17.70;;;5.80;99.90;;;;;;6131084;23;20044;-88
2022/01/10 14:55:03;;;;;;;27.40;17.75;;;5.70;99.90;;;;;;6132987;23;20450;-87
2022/01/10 14:57:31;;;;;;;24.75;18.02;;;5.70;99.90;;;;;;6131792;23;20032;-87
2022/01/10 15:00:23;;;;;;;25.23;17.88;;;5.60;99.90;;;;;;6130942;23;20198;-87
2022/01/10 15:03:00;;;;;;;26.02;17.70;;;5.60;99.90;;;;;;6132348;23;20077;-87
2022/01/10 15:05:33;;;;;;;27.00;17.67;;;5.60;99.90;;;;;;6110162;23;20054;-87
2022/01/10 15:08:23;;;;;;;24.23;16.77;;;5.60;99.90;;;;;;6133521;23;20008;-89
2022/01/10 15:11:34;;;;;;;28.63;17.25;;;5.50;99.90;;;;;;6131021;23;20009;-87
2022/01/10 15:14:08;;;;;;;27.45;16.73;;;5.50;99.90;;;;;;6154809;23;20013;-87
2022/01/10 15:16:44;;;;;;;25.65;18.65;;;5.50;99.90;;;;;;6132015;23;20002;-86
2022/01/10 15:19:43;;;;;;;;;;;;;;;;;;;;;
2022/01/10 15:22:11;;;;;;;28.67;17.58;;;5.40;99.90;;;;;;6100434;23;20092;-90
2022/01/10 15:24:45;;;;;;;27.45;17.95;;;5.30;99.90;;;;;;6134490;23;20004;-89
2022/01/10 15:27:27;;;;;;;24.23;16.20;;;5.40;99.90;;;;;;6133516;23;19998;-89
2022/01/10 15:30:13;;;;;;;26.77;16.55;;;5.30;99.90;;;;;;6134213;23;20002;-88
2022/01/10 15:32:47;;;;;;;23.45;16.40;;;5.30;99.90;;;;;;6132821;23;20001;-87
2022/01/10 15:35:20;;;;;;;24.25;15.43;;;5.20;99.90;;;;;;6132787;23;20012;-87
2022/01/10 15:37:51;;;;;;;24.75;15.77;;;5.20;99.90;;;;;;6108845;23;20013;-87
2022/01/10 15:40:29;;;;;;;23.67;15.05;;;5.20;99.90;;;;;;6158089;23;20009;-87
2022/01/10 15:43:28;;;;;;;;;;;;;;;;;;;;;
2022/01/10 15:46:03;;;;;;;24.27;14.95;;;5.10;99.90;;;;;;6141227;23;20444;-87
2022/01/10 15:48:44;;;;;;;;;;;;;;;;;;;;;
2022/01/10 15:51:27;;;;;;;;;;;;;;;;;;;;;
2022/01/10 15:53:55;;;;;;;25.98;14.70;;;4.90;99.90;;;;;;6155145;23;19994;-88
2022/01/10 15:56:24;;;;;;;25.50;15.23;;;4.90;99.90;;;;;;6103439;23;20002;-88
2022/01/10 15:59:07;;;;;;;26.73;16.75;;;4.80;99.90;;;;;;6121297;23;20086;-86
2022/01/10 16:01:36;;;;;;;27.92;16.70;;;4.80;99.90;;;;;;6094104;23;20014;-86
2022/01/10 16:04:39;;;;;;;;;;;;;;;;;;;;;
2022/01/10 16:07:27;;;;;;;26.05;13.95;;;4.60;99.90;;;;;;6132486;23;20020;-88
2022/01/10 16:09:55;;;;;;;22.08;13.05;;;4.60;99.90;;;;;;6094707;23;20009;-88
2022/01/10 16:12:33;;;;;;;;;;;;;;;;;;;;;
2022/01/10 16:15:17;;;;;;;21.42;13.10;;;4.50;99.90;;;;;;6113088;23;20041;-89
2022/01/10 16:20:41;;;;;;;20.83;13.00;;;4.40;99.90;;;;;;6143940;23;20005;-88
2022/01/10 16:23:08;;;;;;;21.83;12.73;;;4.30;99.90;;;;;;6114075;23;20002;-88
2022/01/10 16:26:06;;;;;;;20.80;13.43;;;4.30;99.90;;;;;;6119085;23;20002;-89
2022/01/10 16:29:00;;;;;;;21.75;13.98;;;4.20;99.90;;;;;;6094322;23;20006;-88